sensor_id;sensor_type;location;lat;lon;timestamp;P1;durP1;ratioP1;P2;durP2;ratioP2
7191;SDS011;3637;51.494;11.958;2023-04-25T00:00:39;5.07;;;4.20;;
7191;SDS011;3637;51.494;11.958;2023-04-25T00:03:41;4.50;;;4.00;;
7191;SDS011;3637;51.494;11.958;2023-04-25T00:06:42;5.37;;;4.20;;
7191;SDS011;3637;51.494;11.958;2023-04-25T00:09:44;5.23;;;4.47;;
7191;SDS011;3637;51.494;11.958;2023-04-25T00:12:46;5.33;;;4.30;;
7191;SDS011;3637;51.494;11.958;2023-04-25T00:15:50;4.80;;;4.03;;
7191;SDS011;3637;51.494;11.958;2023-04-25T00:18:53;4.77;;;4.27;;
7191;SDS011;3637;51.494;11.958;2023-04-25T00:21:54;5.87;;;5.07;;
7191;SDS011;3637;51.494;11.958;2023-04-25T00:24:56;5.60;;;4.40;;
7191;SDS011;3637;51.494;11.958;2023-04-25T00:28:03;4.80;;;4.30;;
7191;SDS011;3637;51.494;11.958;2023-04-25T00:31:06;6.10;;;4.47;;
7191;SDS011;3637;51.494;11.958;2023-04-25T00:34:08;6.27;;;4.03;;
7191;SDS011;3637;51.494;11.958;2023-04-25T00:37:10;7.93;;;4.13;;
7191;SDS011;3637;51.494;11.958;2023-04-25T00:40:12;6.83;;;4.53;;
7191;SDS011;3637;51.494;11.958;2023-04-25T00:43:14;5.83;;;4.00;;
7191;SDS011;3637;51.494;11.958;2023-04-25T00:46:17;5.90;;;4.33;;
7191;SDS011;3637;51.494;11.958;2023-04-25T00:49:21;4.67;;;4.13;;
7191;SDS011;3637;51.494;11.958;2023-04-25T00:52:23;4.47;;;3.93;;
7191;SDS011;3637;51.494;11.958;2023-04-25T00:55:25;5.67;;;3.67;;
7191;SDS011;3637;51.494;11.958;2023-04-25T00:58:27;7.40;;;4.57;;
7191;SDS011;3637;51.494;11.958;2023-04-25T01:01:30;5.13;;;4.13;;
7191;SDS011;3637;51.494;11.958;2023-04-25T01:04:32;5.43;;;4.30;;
7191;SDS011;3637;51.494;11.958;2023-04-25T01:07:34;5.60;;;4.20;;
7191;SDS011;3637;51.494;11.958;2023-04-25T01:10:36;5.93;;;4.97;;
7191;SDS011;3637;51.494;11.958;2023-04-25T01:13:38;5.37;;;4.30;;
7191;SDS011;3637;51.494;11.958;2023-04-25T01:16:41;5.63;;;4.20;;
7191;SDS011;3637;51.494;11.958;2023-04-25T01:19:44;6.03;;;4.60;;
7191;SDS011;3637;51.494;11.958;2023-04-25T01:22:49;5.57;;;4.40;;
7191;SDS011;3637;51.494;11.958;2023-04-25T01:25:51;7.03;;;4.47;;
7191;SDS011;3637;51.494;11.958;2023-04-25T01:28:54;5.20;;;4.30;;
7191;SDS011;3637;51.494;11.958;2023-04-25T01:31:56;6.03;;;4.53;;
7191;SDS011;3637;51.494;11.958;2023-04-25T01:34:59;4.87;;;3.90;;
7191;SDS011;3637;51.494;11.958;2023-04-25T01:38:02;7.77;;;4.30;;
7191;SDS011;3637;51.494;11.958;2023-04-25T01:41:04;8.27;;;5.00;;
7191;SDS011;3637;51.494;11.958;2023-04-25T01:44:06;5.30;;;4.00;;
7191;SDS011;3637;51.494;11.958;2023-04-25T01:47:08;5.23;;;4.40;;
7191;SDS011;3637;51.494;11.958;2023-04-25T01:50:10;5.23;;;4.10;;
7191;SDS011;3637;51.494;11.958;2023-04-25T01:53:13;4.47;;;4.00;;
7191;SDS011;3637;51.494;11.958;2023-04-25T01:56:15;5.83;;;4.40;;
7191;SDS011;3637;51.494;11.958;2023-04-25T01:59:20;6.17;;;4.17;;
7191;SDS011;3637;51.494;11.958;2023-04-25T02:02:22;6.87;;;3.90;;
7191;SDS011;3637;51.494;11.958;2023-04-25T02:05:24;4.57;;;3.80;;
7191;SDS011;3637;51.494;11.958;2023-04-25T02:08:27;5.47;;;3.80;;
7191;SDS011;3637;51.494;11.958;2023-04-25T02:11:30;5.13;;;4.43;;
7191;SDS011;3637;51.494;11.958;2023-04-25T02:14:32;5.47;;;3.73;;
7191;SDS011;3637;51.494;11.958;2023-04-25T02:17:33;4.17;;;3.57;;
7191;SDS011;3637;51.494;11.958;2023-04-25T02:20:35;5.30;;;3.40;;
7191;SDS011;3637;51.494;11.958;2023-04-25T02:23:39;8.37;;;3.97;;
7191;SDS011;3637;51.494;11.958;2023-04-25T02:26:41;5.63;;;3.47;;
7191;SDS011;3637;51.494;11.958;2023-04-25T02:29:43;5.67;;;3.77;;
7191;SDS011;3637;51.494;11.958;2023-04-25T02:32:45;8.17;;;3.40;;
7191;SDS011;3637;51.494;11.958;2023-04-25T02:35:46;5.67;;;3.13;;
7191;SDS011;3637;51.494;11.958;2023-04-25T02:38:50;4.13;;;3.10;;
7191;SDS011;3637;51.494;11.958;2023-04-25T02:41:53;4.33;;;3.37;;
7191;SDS011;3637;51.494;11.958;2023-04-25T02:44:55;4.27;;;3.33;;
7191;SDS011;3637;51.494;11.958;2023-04-25T02:48:00;4.20;;;3.40;;
7191;SDS011;3637;51.494;11.958;2023-04-25T02:51:02;7.10;;;3.80;;
7191;SDS011;3637;51.494;11.958;2023-04-25T02:54:05;5.47;;;3.47;;
7191;SDS011;3637;51.494;11.958;2023-04-25T02:57:07;7.20;;;3.17;;
7191;SDS011;3637;51.494;11.958;2023-04-25T03:00:09;5.47;;;3.20;;
7191;SDS011;3637;51.494;11.958;2023-04-25T03:03:14;4.87;;;3.30;;
7191;SDS011;3637;51.494;11.958;2023-04-25T03:06:17;5.53;;;3.63;;
7191;SDS011;3637;51.494;11.958;2023-04-25T03:09:21;7.80;;;4.00;;
7191;SDS011;3637;51.494;11.958;2023-04-25T03:12:23;4.67;;;3.53;;
7191;SDS011;3637;51.494;11.958;2023-04-25T03:15:24;5.00;;;3.50;;
7191;SDS011;3637;51.494;11.958;2023-04-25T03:18:26;5.50;;;3.70;;
7191;SDS011;3637;51.494;11.958;2023-04-25T03:21:28;5.33;;;3.17;;
7191;SDS011;3637;51.494;11.958;2023-04-25T03:24:33;7.13;;;3.43;;
7191;SDS011;3637;51.494;11.958;2023-04-25T03:27:36;7.57;;;3.73;;
7191;SDS011;3637;51.494;11.958;2023-04-25T03:30:38;9.87;;;3.80;;
7191;SDS011;3637;51.494;11.958;2023-04-25T03:33:40;5.33;;;3.50;;
7191;SDS011;3637;51.494;11.958;2023-04-25T03:36:41;5.03;;;3.30;;
7191;SDS011;3637;51.494;11.958;2023-04-25T03:39:45;5.67;;;3.40;;
7191;SDS011;3637;51.494;11.958;2023-04-25T03:42:46;7.13;;;3.47;;
7191;SDS011;3637;51.494;11.958;2023-04-25T03:45:48;6.60;;;3.57;;
7191;SDS011;3637;51.494;11.958;2023-04-25T03:48:50;4.30;;;3.67;;
7191;SDS011;3637;51.494;11.958;2023-04-25T03:51:52;7.07;;;3.43;;
7191;SDS011;3637;51.494;11.958;2023-04-25T03:54:55;6.80;;;3.63;;
7191;SDS011;3637;51.494;11.958;2023-04-25T03:57:58;5.90;;;3.60;;
7191;SDS011;3637;51.494;11.958;2023-04-25T04:01:03;5.63;;;3.37;;
7191;SDS011;3637;51.494;11.958;2023-04-25T04:04:07;7.00;;;3.73;;
7191;SDS011;3637;51.494;11.958;2023-04-25T04:07:09;9.93;;;3.80;;
7191;SDS011;3637;51.494;11.958;2023-04-25T04:10:12;6.73;;;3.80;;
7191;SDS011;3637;51.494;11.958;2023-04-25T04:13:14;4.93;;;3.53;;
7191;SDS011;3637;51.494;11.958;2023-04-25T04:16:16;5.93;;;4.10;;
7191;SDS011;3637;51.494;11.958;2023-04-25T04:19:18;5.07;;;3.90;;
7191;SDS011;3637;51.494;11.958;2023-04-25T04:22:20;4.23;;;3.60;;
7191;SDS011;3637;51.494;11.958;2023-04-25T04:25:24;7.27;;;3.60;;
7191;SDS011;3637;51.494;11.958;2023-04-25T04:28:26;9.93;;;4.00;;
7191;SDS011;3637;51.494;11.958;2023-04-25T04:31:28;7.07;;;4.03;;
7191;SDS011;3637;51.494;11.958;2023-04-25T04:34:30;7.13;;;4.20;;
7191;SDS011;3637;51.494;11.958;2023-04-25T04:37:32;6.57;;;3.70;;
7191;SDS011;3637;51.494;11.958;2023-04-25T04:40:35;10.53;;;4.37;;
7191;SDS011;3637;51.494;11.958;2023-04-25T04:43:37;7.87;;;4.20;;
7191;SDS011;3637;51.494;11.958;2023-04-25T04:46:39;7.97;;;4.13;;
7191;SDS011;3637;51.494;11.958;2023-04-25T04:49:42;6.27;;;4.17;;
7191;SDS011;3637;51.494;11.958;2023-04-25T04:52:44;5.77;;;4.10;;
7191;SDS011;3637;51.494;11.958;2023-04-25T04:55:47;7.43;;;4.30;;
7191;SDS011;3637;51.494;11.958;2023-04-25T04:58:49;5.40;;;4.20;;
7191;SDS011;3637;51.494;11.958;2023-04-25T05:01:52;9.93;;;4.87;;
7191;SDS011;3637;51.494;11.958;2023-04-25T05:04:55;6.63;;;4.50;;
7191;SDS011;3637;51.494;11.958;2023-04-25T05:07:57;7.27;;;4.67;;
7191;SDS011;3637;51.494;11.958;2023-04-25T05:11:00;9.53;;;4.77;;
7191;SDS011;3637;51.494;11.958;2023-04-25T05:14:02;6.87;;;4.47;;
7191;SDS011;3637;51.494;11.958;2023-04-25T05:17:04;7.90;;;5.13;;
7191;SDS011;3637;51.494;11.958;2023-04-25T05:20:08;7.60;;;5.20;;
7191;SDS011;3637;51.494;11.958;2023-04-25T05:23:10;8.70;;;4.97;;
7191;SDS011;3637;51.494;11.958;2023-04-25T05:26:14;9.73;;;5.17;;
7191;SDS011;3637;51.494;11.958;2023-04-25T05:29:15;8.77;;;5.47;;
7191;SDS011;3637;51.494;11.958;2023-04-25T05:32:17;8.57;;;5.10;;
7191;SDS011;3637;51.494;11.958;2023-04-25T05:35:19;7.43;;;5.10;;
7191;SDS011;3637;51.494;11.958;2023-04-25T05:38:21;10.17;;;5.47;;
7191;SDS011;3637;51.494;11.958;2023-04-25T05:41:24;8.50;;;5.13;;
7191;SDS011;3637;51.494;11.958;2023-04-25T05:44:26;9.17;;;4.87;;
7191;SDS011;3637;51.494;11.958;2023-04-25T05:47:27;10.27;;;5.50;;
7191;SDS011;3637;51.494;11.958;2023-04-25T05:50:29;9.80;;;5.27;;
7191;SDS011;3637;51.494;11.958;2023-04-25T05:53:33;10.80;;;5.23;;
7191;SDS011;3637;51.494;11.958;2023-04-25T05:56:36;7.30;;;5.40;;
7191;SDS011;3637;51.494;11.958;2023-04-25T05:59:38;8.90;;;5.07;;
7191;SDS011;3637;51.494;11.958;2023-04-25T06:02:40;8.40;;;5.00;;
7191;SDS011;3637;51.494;11.958;2023-04-25T06:05:42;7.40;;;5.00;;
7191;SDS011;3637;51.494;11.958;2023-04-25T06:08:44;9.27;;;5.57;;
7191;SDS011;3637;51.494;11.958;2023-04-25T06:11:48;9.67;;;5.83;;
7191;SDS011;3637;51.494;11.958;2023-04-25T06:14:49;7.73;;;5.53;;
7191;SDS011;3637;51.494;11.958;2023-04-25T06:17:51;7.63;;;5.30;;
7191;SDS011;3637;51.494;11.958;2023-04-25T06:20:53;10.67;;;5.73;;
7191;SDS011;3637;51.494;11.958;2023-04-25T06:23:55;9.73;;;5.80;;
7191;SDS011;3637;51.494;11.958;2023-04-25T06:26:58;12.23;;;5.50;;
7191;SDS011;3637;51.494;11.958;2023-04-25T06:30:01;9.50;;;4.80;;
7191;SDS011;3637;51.494;11.958;2023-04-25T06:33:02;6.47;;;4.90;;
7191;SDS011;3637;51.494;11.958;2023-04-25T06:36:04;10.40;;;5.87;;
7191;SDS011;3637;51.494;11.958;2023-04-25T06:39:07;11.07;;;5.70;;
7191;SDS011;3637;51.494;11.958;2023-04-25T06:42:10;8.90;;;5.13;;
7191;SDS011;3637;51.494;11.958;2023-04-25T06:45:12;9.67;;;6.27;;
7191;SDS011;3637;51.494;11.958;2023-04-25T06:48:14;8.77;;;5.40;;
7191;SDS011;3637;51.494;11.958;2023-04-25T06:51:15;8.17;;;5.03;;
7191;SDS011;3637;51.494;11.958;2023-04-25T06:54:17;8.47;;;5.17;;
7191;SDS011;3637;51.494;11.958;2023-04-25T06:57:20;6.47;;;4.53;;
7191;SDS011;3637;51.494;11.958;2023-04-25T07:00:22;7.77;;;4.20;;
7191;SDS011;3637;51.494;11.958;2023-04-25T07:03:25;6.17;;;2.70;;
7191;SDS011;3637;51.494;11.958;2023-04-25T07:06:30;5.10;;;2.37;;
7191;SDS011;3637;51.494;11.958;2023-04-25T07:09:32;6.00;;;2.40;;
7191;SDS011;3637;51.494;11.958;2023-04-25T07:12:35;5.70;;;2.30;;
7191;SDS011;3637;51.494;11.958;2023-04-25T07:15:37;4.77;;;2.23;;
7191;SDS011;3637;51.494;11.958;2023-04-25T07:18:39;4.73;;;2.37;;
7191;SDS011;3637;51.494;11.958;2023-04-25T07:21:41;7.40;;;2.60;;
7191;SDS011;3637;51.494;11.958;2023-04-25T07:24:42;5.27;;;2.43;;
7191;SDS011;3637;51.494;11.958;2023-04-25T07:27:48;2.80;;;2.30;;
7191;SDS011;3637;51.494;11.958;2023-04-25T07:30:51;4.60;;;2.47;;
7191;SDS011;3637;51.494;11.958;2023-04-25T07:33:53;6.83;;;2.67;;
7191;SDS011;3637;51.494;11.958;2023-04-25T07:36:55;3.93;;;2.40;;
7191;SDS011;3637;51.494;11.958;2023-04-25T07:39:59;3.47;;;1.97;;
7191;SDS011;3637;51.494;11.958;2023-04-25T07:43:05;8.17;;;2.47;;
7191;SDS011;3637;51.494;11.958;2023-04-25T07:46:06;3.67;;;2.30;;
7191;SDS011;3637;51.494;11.958;2023-04-25T07:49:08;6.30;;;2.97;;
7191;SDS011;3637;51.494;11.958;2023-04-25T07:52:10;8.00;;;2.77;;
7191;SDS011;3637;51.494;11.958;2023-04-25T07:55:12;8.63;;;2.80;;
7191;SDS011;3637;51.494;11.958;2023-04-25T07:58:15;8.50;;;2.70;;
7191;SDS011;3637;51.494;11.958;2023-04-25T08:01:21;9.47;;;2.57;;
7191;SDS011;3637;51.494;11.958;2023-04-25T08:04:23;6.00;;;2.60;;
7191;SDS011;3637;51.494;11.958;2023-04-25T08:07:25;4.27;;;2.23;;
7191;SDS011;3637;51.494;11.958;2023-04-25T08:10:27;4.57;;;2.47;;
7191;SDS011;3637;51.494;11.958;2023-04-25T08:13:31;4.83;;;2.53;;
7191;SDS011;3637;51.494;11.958;2023-04-25T08:16:32;9.43;;;3.40;;
7191;SDS011;3637;51.494;11.958;2023-04-25T08:19:35;5.27;;;2.73;;
7191;SDS011;3637;51.494;11.958;2023-04-25T08:22:37;5.13;;;2.90;;
7191;SDS011;3637;51.494;11.958;2023-04-25T08:25:39;6.77;;;2.47;;
7191;SDS011;3637;51.494;11.958;2023-04-25T08:28:43;12.47;;;3.30;;
7191;SDS011;3637;51.494;11.958;2023-04-25T08:31:45;9.57;;;2.97;;
7191;SDS011;3637;51.494;11.958;2023-04-25T08:34:46;11.27;;;3.00;;
7191;SDS011;3637;51.494;11.958;2023-04-25T08:37:48;10.53;;;3.40;;
7191;SDS011;3637;51.494;11.958;2023-04-25T08:40:51;5.90;;;2.97;;
7191;SDS011;3637;51.494;11.958;2023-04-25T08:43:54;10.87;;;3.23;;
7191;SDS011;3637;51.494;11.958;2023-04-25T08:46:59;9.57;;;3.23;;
7191;SDS011;3637;51.494;11.958;2023-04-25T08:50:02;10.50;;;4.67;;
7191;SDS011;3637;51.494;11.958;2023-04-25T08:53:06;8.20;;;3.80;;
7191;SDS011;3637;51.494;11.958;2023-04-25T08:56:12;9.03;;;3.97;;
7191;SDS011;3637;51.494;11.958;2023-04-25T08:59:19;8.33;;;3.37;;
7191;SDS011;3637;51.494;11.958;2023-04-25T09:02:22;9.27;;;4.13;;
7191;SDS011;3637;51.494;11.958;2023-04-25T09:05:25;8.93;;;4.10;;
7191;SDS011;3637;51.494;11.958;2023-04-25T09:08:28;10.33;;;4.17;;
7191;SDS011;3637;51.494;11.958;2023-04-25T09:11:31;6.17;;;3.53;;
7191;SDS011;3637;51.494;11.958;2023-04-25T09:14:34;12.20;;;4.20;;
7191;SDS011;3637;51.494;11.958;2023-04-25T09:17:36;8.47;;;4.43;;
7191;SDS011;3637;51.494;11.958;2023-04-25T09:20:41;9.47;;;4.30;;
7191;SDS011;3637;51.494;11.958;2023-04-25T09:23:44;7.00;;;4.27;;
7191;SDS011;3637;51.494;11.958;2023-04-25T09:26:47;8.23;;;3.87;;
7191;SDS011;3637;51.494;11.958;2023-04-25T09:29:58;8.00;;;4.60;;
7191;SDS011;3637;51.494;11.958;2023-04-25T09:33:04;10.33;;;4.63;;
7191;SDS011;3637;51.494;11.958;2023-04-25T09:36:08;11.53;;;4.30;;
7191;SDS011;3637;51.494;11.958;2023-04-25T09:39:12;10.57;;;4.50;;
7191;SDS011;3637;51.494;11.958;2023-04-25T09:42:16;11.33;;;4.60;;
7191;SDS011;3637;51.494;11.958;2023-04-25T09:45:20;8.97;;;4.60;;
7191;SDS011;3637;51.494;11.958;2023-04-25T09:48:22;9.43;;;4.13;;
7191;SDS011;3637;51.494;11.958;2023-04-25T09:51:25;7.30;;;3.80;;
7191;SDS011;3637;51.494;11.958;2023-04-25T09:54:28;6.40;;;4.80;;
7191;SDS011;3637;51.494;11.958;2023-04-25T09:57:29;8.43;;;3.33;;
7191;SDS011;3637;51.494;11.958;2023-04-25T10:00:33;6.53;;;3.43;;
7191;SDS011;3637;51.494;11.958;2023-04-25T10:03:36;6.57;;;3.63;;
7191;SDS011;3637;51.494;11.958;2023-04-25T10:06:39;9.90;;;3.63;;
7191;SDS011;3637;51.494;11.958;2023-04-25T10:09:44;6.37;;;2.97;;
7191;SDS011;3637;51.494;11.958;2023-04-25T10:12:49;7.13;;;3.23;;
7191;SDS011;3637;51.494;11.958;2023-04-25T10:15:52;5.60;;;3.20;;
7191;SDS011;3637;51.494;11.958;2023-04-25T10:18:55;4.57;;;3.33;;
7191;SDS011;3637;51.494;11.958;2023-04-25T10:22:03;6.27;;;3.53;;
7191;SDS011;3637;51.494;11.958;2023-04-25T10:25:08;11.33;;;4.27;;
7191;SDS011;3637;51.494;11.958;2023-04-25T10:28:11;12.93;;;4.47;;
7191;SDS011;3637;51.494;11.958;2023-04-25T10:31:15;8.73;;;4.00;;
7191;SDS011;3637;51.494;11.958;2023-04-25T10:34:17;11.93;;;4.53;;
7191;SDS011;3637;51.494;11.958;2023-04-25T10:37:20;10.30;;;3.73;;
7191;SDS011;3637;51.494;11.958;2023-04-25T10:40:21;9.43;;;3.50;;
7191;SDS011;3637;51.494;11.958;2023-04-25T10:43:32;6.60;;;3.20;;
7191;SDS011;3637;51.494;11.958;2023-04-25T10:46:37;5.73;;;3.10;;
7191;SDS011;3637;51.494;11.958;2023-04-25T10:49:41;5.77;;;3.10;;
7191;SDS011;3637;51.494;11.958;2023-04-25T10:52:43;8.23;;;3.47;;
7191;SDS011;3637;51.494;11.958;2023-04-25T10:55:51;6.03;;;2.90;;
7191;SDS011;3637;51.494;11.958;2023-04-25T10:59:02;5.93;;;2.77;;
7191;SDS011;3637;51.494;11.958;2023-04-25T11:02:12;7.50;;;3.00;;
7191;SDS011;3637;51.494;11.958;2023-04-25T11:05:21;6.13;;;2.53;;
7191;SDS011;3637;51.494;11.958;2023-04-25T11:08:28;7.03;;;2.30;;
7191;SDS011;3637;51.494;11.958;2023-04-25T11:11:53;6.10;;;2.50;;
7191;SDS011;3637;51.494;11.958;2023-04-25T11:14:58;6.10;;;2.83;;
7191;SDS011;3637;51.494;11.958;2023-04-25T11:18:03;7.03;;;2.50;;
7191;SDS011;3637;51.494;11.958;2023-04-25T11:21:05;4.07;;;2.50;;
7191;SDS011;3637;51.494;11.958;2023-04-25T11:24:09;5.47;;;2.57;;
7191;SDS011;3637;51.494;11.958;2023-04-25T11:27:11;5.60;;;2.37;;
7191;SDS011;3637;51.494;11.958;2023-04-25T11:30:14;5.93;;;3.37;;
7191;SDS011;3637;51.494;11.958;2023-04-25T11:33:18;3.37;;;2.13;;
7191;SDS011;3637;51.494;11.958;2023-04-25T11:36:24;6.43;;;2.60;;
7191;SDS011;3637;51.494;11.958;2023-04-25T11:39:27;4.70;;;2.17;;
7191;SDS011;3637;51.494;11.958;2023-04-25T11:42:29;5.33;;;2.40;;
7191;SDS011;3637;51.494;11.958;2023-04-25T11:45:31;8.97;;;2.63;;
7191;SDS011;3637;51.494;11.958;2023-04-25T11:48:37;5.43;;;2.13;;
7191;SDS011;3637;51.494;11.958;2023-04-25T11:51:40;6.20;;;2.20;;
7191;SDS011;3637;51.494;11.958;2023-04-25T11:54:43;4.53;;;2.30;;
7191;SDS011;3637;51.494;11.958;2023-04-25T11:57:47;4.83;;;2.23;;
7191;SDS011;3637;51.494;11.958;2023-04-25T12:00:50;5.63;;;2.43;;
7191;SDS011;3637;51.494;11.958;2023-04-25T12:03:53;5.03;;;2.10;;
7191;SDS011;3637;51.494;11.958;2023-04-25T12:06:55;4.03;;;1.90;;
7191;SDS011;3637;51.494;11.958;2023-04-25T12:09:56;5.73;;;2.13;;
7191;SDS011;3637;51.494;11.958;2023-04-25T12:12:58;4.60;;;2.20;;
7191;SDS011;3637;51.494;11.958;2023-04-25T12:16:00;4.60;;;2.20;;
7191;SDS011;3637;51.494;11.958;2023-04-25T12:19:03;3.03;;;1.93;;
7191;SDS011;3637;51.494;11.958;2023-04-25T12:22:18;5.40;;;1.83;;
7191;SDS011;3637;51.494;11.958;2023-04-25T12:25:34;3.70;;;2.13;;
7191;SDS011;3637;51.494;11.958;2023-04-25T12:28:36;3.73;;;1.80;;
7191;SDS011;3637;51.494;11.958;2023-04-25T12:31:38;2.50;;;1.70;;
7191;SDS011;3637;51.494;11.958;2023-04-25T12:34:41;6.07;;;2.20;;
7191;SDS011;3637;51.494;11.958;2023-04-25T12:37:43;5.83;;;2.50;;
7191;SDS011;3637;51.494;11.958;2023-04-25T12:40:45;5.87;;;1.80;;
7191;SDS011;3637;51.494;11.958;2023-04-25T12:43:47;2.70;;;1.67;;
7191;SDS011;3637;51.494;11.958;2023-04-25T12:46:49;2.90;;;2.00;;
7191;SDS011;3637;51.494;11.958;2023-04-25T12:49:52;8.03;;;2.27;;
7191;SDS011;3637;51.494;11.958;2023-04-25T12:52:54;6.07;;;3.00;;
7191;SDS011;3637;51.494;11.958;2023-04-25T12:55:56;4.97;;;1.87;;
7191;SDS011;3637;51.494;11.958;2023-04-25T12:58:58;3.13;;;1.90;;
7191;SDS011;3637;51.494;11.958;2023-04-25T13:02:00;4.13;;;2.53;;
7191;SDS011;3637;51.494;11.958;2023-04-25T13:05:03;3.83;;;2.10;;
7191;SDS011;3637;51.494;11.958;2023-04-25T13:08:05;3.40;;;2.67;;
7191;SDS011;3637;51.494;11.958;2023-04-25T13:11:08;3.17;;;2.20;;
7191;SDS011;3637;51.494;11.958;2023-04-25T13:14:10;3.10;;;1.93;;
7191;SDS011;3637;51.494;11.958;2023-04-25T13:17:11;4.23;;;2.03;;
7191;SDS011;3637;51.494;11.958;2023-04-25T13:20:15;3.43;;;2.00;;
7191;SDS011;3637;51.494;11.958;2023-04-25T13:23:18;3.53;;;1.97;;
7191;SDS011;3637;51.494;11.958;2023-04-25T13:26:21;2.70;;;1.77;;
7191;SDS011;3637;51.494;11.958;2023-04-25T13:29:23;3.37;;;1.80;;
7191;SDS011;3637;51.494;11.958;2023-04-25T13:32:25;5.57;;;2.53;;
7191;SDS011;3637;51.494;11.958;2023-04-25T13:35:28;4.97;;;2.83;;
7191;SDS011;3637;51.494;11.958;2023-04-25T13:38:30;5.73;;;1.73;;
7191;SDS011;3637;51.494;11.958;2023-04-25T13:41:32;2.43;;;1.77;;
7191;SDS011;3637;51.494;11.958;2023-04-25T13:44:34;3.83;;;2.27;;
7191;SDS011;3637;51.494;11.958;2023-04-25T13:47:36;4.10;;;2.10;;
7191;SDS011;3637;51.494;11.958;2023-04-25T13:50:39;2.93;;;1.80;;
7191;SDS011;3637;51.494;11.958;2023-04-25T13:53:41;3.27;;;2.27;;
7191;SDS011;3637;51.494;11.958;2023-04-25T13:56:43;4.07;;;2.13;;
7191;SDS011;3637;51.494;11.958;2023-04-25T13:59:45;3.80;;;2.13;;
7191;SDS011;3637;51.494;11.958;2023-04-25T14:02:47;3.70;;;2.00;;
7191;SDS011;3637;51.494;11.958;2023-04-25T14:05:50;2.87;;;2.20;;
7191;SDS011;3637;51.494;11.958;2023-04-25T14:08:53;4.70;;;2.37;;
7191;SDS011;3637;51.494;11.958;2023-04-25T14:11:55;3.40;;;1.87;;
7191;SDS011;3637;51.494;11.958;2023-04-25T14:14:59;3.97;;;2.47;;
7191;SDS011;3637;51.494;11.958;2023-04-25T14:18:01;2.70;;;2.00;;
7191;SDS011;3637;51.494;11.958;2023-04-25T14:21:04;4.27;;;2.40;;
7191;SDS011;3637;51.494;11.958;2023-04-25T14:24:06;3.23;;;1.83;;
7191;SDS011;3637;51.494;11.958;2023-04-25T14:27:09;3.77;;;2.00;;
7191;SDS011;3637;51.494;11.958;2023-04-25T14:30:12;6.10;;;2.10;;
7191;SDS011;3637;51.494;11.958;2023-04-25T14:33:14;4.67;;;2.20;;
7191;SDS011;3637;51.494;11.958;2023-04-25T14:36:17;4.67;;;2.20;;
7191;SDS011;3637;51.494;11.958;2023-04-25T14:39:19;5.03;;;2.30;;
7191;SDS011;3637;51.494;11.958;2023-04-25T14:42:22;4.10;;;2.00;;
7191;SDS011;3637;51.494;11.958;2023-04-25T14:45:23;3.73;;;1.93;;
7191;SDS011;3637;51.494;11.958;2023-04-25T14:48:25;5.60;;;2.10;;
7191;SDS011;3637;51.494;11.958;2023-04-25T14:51:28;4.23;;;1.93;;
7191;SDS011;3637;51.494;11.958;2023-04-25T14:54:31;4.97;;;2.40;;
7191;SDS011;3637;51.494;11.958;2023-04-25T14:57:33;3.53;;;2.20;;
7191;SDS011;3637;51.494;11.958;2023-04-25T15:00:35;3.87;;;1.80;;
7191;SDS011;3637;51.494;11.958;2023-04-25T15:03:37;6.47;;;1.90;;
7191;SDS011;3637;51.494;11.958;2023-04-25T15:06:40;2.97;;;1.80;;
7191;SDS011;3637;51.494;11.958;2023-04-25T15:09:42;3.20;;;2.37;;
7191;SDS011;3637;51.494;11.958;2023-04-25T15:12:44;2.20;;;1.90;;
7191;SDS011;3637;51.494;11.958;2023-04-25T15:15:46;4.93;;;2.10;;
7191;SDS011;3637;51.494;11.958;2023-04-25T15:18:51;3.47;;;2.23;;
7191;SDS011;3637;51.494;11.958;2023-04-25T15:21:58;4.33;;;1.97;;
7191;SDS011;3637;51.494;11.958;2023-04-25T15:25:01;3.80;;;1.80;;
7191;SDS011;3637;51.494;11.958;2023-04-25T15:28:03;3.03;;;1.70;;
7191;SDS011;3637;51.494;11.958;2023-04-25T15:31:05;5.27;;;2.10;;
7191;SDS011;3637;51.494;11.958;2023-04-25T15:34:07;6.63;;;1.93;;
7191;SDS011;3637;51.494;11.958;2023-04-25T15:37:10;3.33;;;1.90;;
7191;SDS011;3637;51.494;11.958;2023-04-25T15:40:15;3.57;;;1.90;;
7191;SDS011;3637;51.494;11.958;2023-04-25T15:43:17;3.97;;;1.73;;
7191;SDS011;3637;51.494;11.958;2023-04-25T15:46:19;3.30;;;2.17;;
7191;SDS011;3637;51.494;11.958;2023-04-25T15:49:21;6.37;;;3.33;;
7191;SDS011;3637;51.494;11.958;2023-04-25T15:52:24;3.93;;;1.87;;
7191;SDS011;3637;51.494;11.958;2023-04-25T15:55:26;6.63;;;2.33;;
7191;SDS011;3637;51.494;11.958;2023-04-25T15:58:28;4.40;;;1.97;;
7191;SDS011;3637;51.494;11.958;2023-04-25T16:01:30;3.93;;;1.87;;
7191;SDS011;3637;51.494;11.958;2023-04-25T16:04:32;4.63;;;1.77;;
7191;SDS011;3637;51.494;11.958;2023-04-25T16:07:36;4.23;;;2.50;;
7191;SDS011;3637;51.494;11.958;2023-04-25T16:10:38;5.50;;;2.23;;
7191;SDS011;3637;51.494;11.958;2023-04-25T16:13:40;2.97;;;1.80;;
7191;SDS011;3637;51.494;11.958;2023-04-25T16:16:42;3.37;;;2.37;;
7191;SDS011;3637;51.494;11.958;2023-04-25T16:19:44;6.57;;;2.73;;
7191;SDS011;3637;51.494;11.958;2023-04-25T16:22:47;3.77;;;2.50;;
7191;SDS011;3637;51.494;11.958;2023-04-25T16:25:49;3.30;;;1.80;;
7191;SDS011;3637;51.494;11.958;2023-04-25T16:28:50;4.50;;;1.90;;
7191;SDS011;3637;51.494;11.958;2023-04-25T16:31:52;4.53;;;1.83;;
7191;SDS011;3637;51.494;11.958;2023-04-25T16:34:54;4.70;;;1.73;;
7191;SDS011;3637;51.494;11.958;2023-04-25T16:37:57;3.40;;;1.90;;
7191;SDS011;3637;51.494;11.958;2023-04-25T16:40:59;3.20;;;1.90;;
7191;SDS011;3637;51.494;11.958;2023-04-25T16:44:01;2.20;;;1.73;;
7191;SDS011;3637;51.494;11.958;2023-04-25T16:47:05;4.17;;;1.90;;
7191;SDS011;3637;51.494;11.958;2023-04-25T16:50:07;2.93;;;1.80;;
7191;SDS011;3637;51.494;11.958;2023-04-25T16:53:11;3.67;;;1.80;;
7191;SDS011;3637;51.494;11.958;2023-04-25T16:56:13;3.67;;;1.87;;
7191;SDS011;3637;51.494;11.958;2023-04-25T16:59:14;3.57;;;2.10;;
7191;SDS011;3637;51.494;11.958;2023-04-25T17:02:16;2.97;;;1.87;;
7191;SDS011;3637;51.494;11.958;2023-04-25T17:05:18;3.03;;;2.03;;
7191;SDS011;3637;51.494;11.958;2023-04-25T17:08:21;2.23;;;1.77;;
7191;SDS011;3637;51.494;11.958;2023-04-25T17:11:23;6.10;;;1.90;;
7191;SDS011;3637;51.494;11.958;2023-04-25T17:14:25;3.97;;;2.03;;
7191;SDS011;3637;51.494;11.958;2023-04-25T17:17:27;3.77;;;1.90;;
7191;SDS011;3637;51.494;11.958;2023-04-25T17:20:29;3.30;;;1.60;;
7191;SDS011;3637;51.494;11.958;2023-04-25T17:23:33;2.90;;;1.40;;
7191;SDS011;3637;51.494;11.958;2023-04-25T17:26:35;2.77;;;1.80;;
7191;SDS011;3637;51.494;11.958;2023-04-25T17:29:36;4.30;;;1.80;;
7191;SDS011;3637;51.494;11.958;2023-04-25T17:32:38;2.03;;;1.40;;
7191;SDS011;3637;51.494;11.958;2023-04-25T17:35:40;2.80;;;1.50;;
7191;SDS011;3637;51.494;11.958;2023-04-25T17:38:43;3.47;;;1.77;;
7191;SDS011;3637;51.494;11.958;2023-04-25T17:41:46;2.83;;;1.50;;
7191;SDS011;3637;51.494;11.958;2023-04-25T17:44:48;1.37;;;1.27;;
7191;SDS011;3637;51.494;11.958;2023-04-25T17:47:50;1.97;;;1.30;;
7191;SDS011;3637;51.494;11.958;2023-04-25T17:50:52;1.97;;;1.50;;
7191;SDS011;3637;51.494;11.958;2023-04-25T17:53:56;3.37;;;1.70;;
7191;SDS011;3637;51.494;11.958;2023-04-25T17:56:58;2.90;;;1.50;;
7191;SDS011;3637;51.494;11.958;2023-04-25T18:00:00;2.10;;;1.60;;
7191;SDS011;3637;51.494;11.958;2023-04-25T18:03:02;4.90;;;1.73;;
7191;SDS011;3637;51.494;11.958;2023-04-25T18:06:04;3.90;;;1.43;;
7191;SDS011;3637;51.494;11.958;2023-04-25T18:09:07;2.10;;;1.50;;
7191;SDS011;3637;51.494;11.958;2023-04-25T18:12:16;5.07;;;1.90;;
7191;SDS011;3637;51.494;11.958;2023-04-25T18:15:18;2.53;;;1.70;;
7191;SDS011;3637;51.494;11.958;2023-04-25T18:18:21;3.87;;;1.50;;
7191;SDS011;3637;51.494;11.958;2023-04-25T18:21:26;3.07;;;1.67;;
7191;SDS011;3637;51.494;11.958;2023-04-25T18:24:30;2.57;;;1.50;;
7191;SDS011;3637;51.494;11.958;2023-04-25T18:27:32;2.20;;;1.60;;
7191;SDS011;3637;51.494;11.958;2023-04-25T18:30:34;1.70;;;1.60;;
7191;SDS011;3637;51.494;11.958;2023-04-25T18:33:36;5.40;;;1.80;;
7191;SDS011;3637;51.494;11.958;2023-04-25T18:36:39;2.43;;;1.73;;